Time;durP1;ratioP1;P1;durP2;ratioP2;P2;SDS_P1;SDS_P2;PMS_P1;PMS_P2;Temp;Humidity;BMP_temperature;BMP_pressure;BME280_temperature;BME280_humidity;BME280_pressure;Samples;Min_cycle;Max_cycle;Signal;HPM_P1;HPM_P2
2023/03/13 00:01:13;;;;;;;12.43;2.80;;;;;;;;;;5006106;28;20037;-56
2023/03/13 00:03:38;;;;;;;11.60;2.70;;;;;;;;;;5008538;28;20037;-56
2023/03/13 00:06:04;;;;;;;6.80;2.30;;;;;;;;;;5008705;28;20030;-56
2023/03/13 00:08:29;;;;;;;6.55;2.15;;;;;;;;;;4999643;28;20041;-54
2023/03/13 00:10:55;;;;;;;5.60;2.58;;;;;;;;;;4999182;28;20029;-56
2023/03/13 00:13:20;;;;;;;6.00;2.67;;;;;;;;;;5008667;28;20048;-56
2023/03/13 00:15:46;;;;;;;5.38;2.38;;;;;;;;;;5005280;28;20064;-56
2023/03/13 00:18:11;;;;;;;4.70;2.30;;;;;;;;;;5002409;28;20038;-55
2023/03/13 00:20:36;;;;;;;9.48;3.55;;;;;;;;;;5007555;28;20068;-56
2023/03/13 00:23:02;;;;;;;6.90;3.15;;;;;;;;;;5008288;28;20030;-55
2023/03/13 00:25:27;;;;;;;9.50;3.13;;;;;;;;;;5006233;28;20029;-56
2023/03/13 00:27:52;;;;;;;9.85;3.20;;;;;;;;;;5003455;28;20515;-56
2023/03/13 00:30:18;;;;;;;12.63;3.72;;;;;;;;;;5000345;28;20127;-57
2023/03/13 00:32:45;;;;;;;7.07;3.33;;;;;;;;;;4998255;28;20187;-56
2023/03/13 00:35:11;;;;;;;8.18;3.20;;;;;;;;;;5000758;28;20124;-56
2023/03/13 00:37:36;;;;;;;8.35;3.22;;;;;;;;;;5008807;28;20069;-57
2023/03/13 00:40:03;;;;;;;6.50;3.33;;;;;;;;;;5007862;28;20061;-56
2023/03/13 00:42:29;;;;;;;11.38;3.83;;;;;;;;;;5005240;28;20073;-55
2023/03/13 00:44:54;;;;;;;10.20;3.55;;;;;;;;;;5000257;28;20471;-56
2023/03/13 00:47:19;;;;;;;12.10;4.00;;;;;;;;;;5002835;28;20030;-55
2023/03/13 00:49:45;;;;;;;9.45;3.33;;;;;;;;;;5004227;28;20160;-55
2023/03/13 00:52:10;;;;;;;9.88;4.03;;;;;;;;;;5006964;28;20041;-56
2023/03/13 00:54:35;;;;;;;8.63;3.85;;;;;;;;;;5005047;28;20030;-54
2023/03/13 00:57:00;;;;;;;8.50;3.97;;;;;;;;;;5017383;28;20534;-56
2023/03/13 00:59:26;;;;;;;9.25;4.32;;;;;;;;;;5002598;28;20045;-56
2023/03/13 01:01:51;;;;;;;9.15;4.13;;;;;;;;;;5007395;28;20069;-55
2023/03/13 01:04:17;;;;;;;8.85;3.83;;;;;;;;;;5009246;28;20018;-56
2023/03/13 01:06:42;;;;;;;8.50;4.20;;;;;;;;;;5007570;28;20064;-56
2023/03/13 01:09:11;;;;;;;6.63;3.55;;;;;;;;;;5007756;28;20038;-54
2023/03/13 01:11:39;;;;;;;7.57;3.25;;;;;;;;;;5006887;28;20029;-56
2023/03/13 01:14:12;;;;;;;11.30;3.88;;;;;;;;;;5007207;28;20618;-57
2023/03/13 01:16:39;;;;;;;10.07;4.32;;;;;;;;;;5004476;28;20026;-56
2023/03/13 01:19:07;;;;;;;12.40;4.32;;;;;;;;;;5005255;28;20404;-56
2023/03/13 01:21:33;;;;;;;8.30;4.55;;;;;;;;;;5007027;28;20030;-56
2023/03/13 01:23:58;;;;;;;10.93;5.20;;;;;;;;;;5002097;28;20045;-55
2023/03/13 01:26:24;;;;;;;10.70;4.47;;;;;;;;;;5002036;28;20029;-56
2023/03/13 01:28:50;;;;;;;8.35;3.85;;;;;;;;;;4999094;28;20030;-56
2023/03/13 01:31:24;;;;;;;7.82;3.90;;;;;;;;;;5004882;28;20053;-56
2023/03/13 01:33:53;;;;;;;8.88;4.28;;;;;;;;;;5003981;28;20513;-55
2023/03/13 01:36:18;;;;;;;9.50;3.85;;;;;;;;;;5005372;28;20038;-56
2023/03/13 01:38:48;;;;;;;7.45;3.80;;;;;;;;;;5008073;28;20044;-55
2023/03/13 01:41:13;;;;;;;8.02;3.75;;;;;;;;;;5006910;28;20045;-56
2023/03/13 01:43:39;;;;;;;7.82;3.00;;;;;;;;;;5007565;28;20052;-56
2023/03/13 01:46:08;;;;;;;9.27;4.63;;;;;;;;;;5007145;28;20045;-56
2023/03/13 01:48:49;;;;;;;8.98;4.38;;;;;;;;;;5005628;28;20196;-56
2023/03/13 01:51:39;;;;;;;8.10;4.05;;;;;;;;;;5005728;28;20044;-56
2023/03/13 01:54:04;;;;;;;8.60;4.22;;;;;;;;;;4996545;28;20038;-57
2023/03/13 01:56:40;;;;;;;10.60;3.78;;;;;;;;;;5005596;28;20044;-56
2023/03/13 01:59:08;;;;;;;7.38;3.90;;;;;;;;;;5006852;28;20036;-55
2023/03/13 02:01:34;;;;;;;7.85;4.00;;;;;;;;;;5000568;28;20087;-56
2023/03/13 02:04:00;;;;;;;10.13;4.78;;;;;;;;;;5003543;28;20042;-56
2023/03/13 02:06:29;;;;;;;10.45;4.03;;;;;;;;;;5006341;28;20042;-55
2023/03/13 02:09:06;;;;;;;8.45;4.05;;;;;;;;;;5005714;28;20045;-55
2023/03/13 02:11:43;;;;;;;7.63;3.60;;;;;;;;;;5006900;28;20041;-56
2023/03/13 02:14:09;;;;;;;8.98;3.90;;;;;;;;;;5006981;28;20573;-56
2023/03/13 02:16:35;;;;;;;8.18;3.70;;;;;;;;;;5005268;28;20025;-56
2023/03/13 02:19:15;;;;;;;7.18;3.60;;;;;;;;;;5001524;28;20515;-56
2023/03/13 02:21:44;;;;;;;7.78;4.18;;;;;;;;;;5000472;28;20041;-56
2023/03/13 02:24:29;;;;;;;9.02;3.75;;;;;;;;;;5007050;28;20030;-56
2023/03/13 02:26:55;;;;;;;6.05;3.35;;;;;;;;;;5004584;28;20038;-56
2023/03/13 02:29:20;;;;;;;7.50;3.17;;;;;;;;;;5007359;28;20092;-56
2023/03/13 02:31:49;;;;;;;4.97;2.92;;;;;;;;;;5003759;28;20037;-56
2023/03/13 02:34:20;;;;;;;6.65;3.13;;;;;;;;;;5006530;28;20085;-57
2023/03/13 02:36:46;;;;;;;5.13;3.03;;;;;;;;;;5006192;28;20038;-56
2023/03/13 02:39:14;;;;;;;8.60;2.90;;;;;;;;;;5009575;28;20537;-57
2023/03/13 02:41:41;;;;;;;5.70;3.30;;;;;;;;;;5009499;28;20193;-56
2023/03/13 02:44:06;;;;;;;8.50;2.97;;;;;;;;;;5009702;28;20046;-56
2023/03/13 02:46:43;;;;;;;9.63;3.50;;;;;;;;;;5009146;28;20038;-55
2023/03/13 02:49:29;;;;;;;6.47;3.15;;;;;;;;;;5008410;28;20099;-56
2023/03/13 02:52:16;;;;;;;5.05;2.90;;;;;;;;;;5010531;28;20068;-56
2023/03/13 02:54:44;;;;;;;7.63;3.25;;;;;;;;;;5006339;28;20045;-56
2023/03/13 02:57:10;;;;;;;5.78;3.10;;;;;;;;;;5008846;28;20061;-56
2023/03/13 02:59:35;;;;;;;8.05;3.03;;;;;;;;;;5008657;28;20034;-55
2023/03/13 03:02:02;;;;;;;6.15;3.15;;;;;;;;;;5007033;28;20034;-56
2023/03/13 03:04:27;;;;;;;7.43;2.97;;;;;;;;;;5010286;28;20562;-56
2023/03/13 03:06:53;;;;;;;5.10;2.95;;;;;;;;;;5000247;28;20124;-56
2023/03/13 03:09:19;;;;;;;6.72;2.90;;;;;;;;;;5007389;28;20053;-56
2023/03/13 03:11:45;;;;;;;7.28;3.15;;;;;;;;;;5008431;28;20030;-56
2023/03/13 03:14:11;;;;;;;5.45;3.00;;;;;;;;;;5008788;28;20049;-55
2023/03/13 03:16:37;;;;;;;7.65;2.83;;;;;;;;;;5003083;28;20034;-56
2023/03/13 03:19:03;;;;;;;6.90;2.92;;;;;;;;;;5004423;28;20895;-56
2023/03/13 03:21:29;;;;;;;4.32;2.63;;;;;;;;;;5004346;28;20128;-57
2023/03/13 03:23:55;;;;;;;4.43;2.58;;;;;;;;;;5009284;28;20264;-56
2023/03/13 03:26:21;;;;;;;8.00;3.15;;;;;;;;;;5009764;28;20628;-57
2023/03/13 03:28:46;;;;;;;6.45;2.75;;;;;;;;;;5008111;28;20030;-54
2023/03/13 03:31:14;;;;;;;6.05;3.05;;;;;;;;;;5005150;28;20038;-56
2023/03/13 03:33:40;;;;;;;4.47;2.22;;;;;;;;;;5008646;28;20042;-56
2023/03/13 03:36:08;;;;;;;8.48;2.92;;;;;;;;;;5008292;28;21349;-56
2023/03/13 03:38:34;;;;;;;6.40;2.65;;;;;;;;;;5004595;28;20523;-56
2023/03/13 03:40:59;;;;;;;7.18;2.83;;;;;;;;;;4999605;28;20068;-57
2023/03/13 03:43:25;;;;;;;4.75;2.85;;;;;;;;;;5002484;28;20029;-56
2023/03/13 03:45:50;;;;;;;5.30;2.25;;;;;;;;;;5009225;28;20042;-56
2023/03/13 03:48:15;;;;;;;4.70;2.28;;;;;;;;;;5005669;28;20120;-56
2023/03/13 03:50:41;;;;;;;6.50;2.75;;;;;;;;;;5007366;28;20038;-56
2023/03/13 03:53:06;;;;;;;4.15;2.55;;;;;;;;;;5008824;28;20058;-56
2023/03/13 03:55:32;;;;;;;4.95;2.60;;;;;;;;;;5009432;28;20026;-57
2023/03/13 03:57:57;;;;;;;6.43;2.35;;;;;;;;;;5008974;28;20125;-56
2023/03/13 04:00:23;;;;;;;4.10;2.33;;;;;;;;;;5009224;28;20173;-55
2023/03/13 04:02:48;;;;;;;7.68;2.33;;;;;;;;;;5008725;28;20030;-56
2023/03/13 04:05:14;;;;;;;5.28;2.42;;;;;;;;;;5009114;28;20049;-56
2023/03/13 04:07:39;;;;;;;4.07;2.33;;;;;;;;;;5004636;28;20169;-56
2023/03/13 04:10:05;;;;;;;5.38;2.65;;;;;;;;;;4999592;28;20034;-56
2023/03/13 04:12:30;;;;;;;4.72;2.40;;;;;;;;;;5007050;28;20042;-56
2023/03/13 04:14:55;;;;;;;5.43;2.10;;;;;;;;;;5001049;28;20038;-55
2023/03/13 04:17:21;;;;;;;7.82;2.88;;;;;;;;;;4998717;28;20073;-56
2023/03/13 04:19:46;;;;;;;8.02;2.22;;;;;;;;;;5008347;28;20037;-56
2023/03/13 04:22:11;;;;;;;8.18;2.60;;;;;;;;;;5007893;28;20199;-56
2023/03/13 04:24:37;;;;;;;6.90;2.50;;;;;;;;;;5007849;28;20034;-56
2023/03/13 04:27:05;;;;;;;7.60;2.33;;;;;;;;;;5006416;28;20044;-56
2023/03/13 04:29:30;;;;;;;7.97;2.55;;;;;;;;;;5000343;28;20033;-56
2023/03/13 04:31:56;;;;;;;4.25;2.78;;;;;;;;;;5005709;28;20075;-57
2023/03/13 04:34:21;;;;;;;9.77;2.40;;;;;;;;;;5008583;28;20045;-56
2023/03/13 04:36:46;;;;;;;5.68;2.40;;;;;;;;;;5006392;28;20026;-56
2023/03/13 04:39:11;;;;;;;9.13;2.80;;;;;;;;;;5004318;28;20523;-56
2023/03/13 04:41:37;;;;;;;10.38;3.00;;;;;;;;;;5007730;28;20061;-56
2023/03/13 04:44:02;;;;;;;7.05;2.20;;;;;;;;;;5007819;28;20021;-56
2023/03/13 04:46:28;;;;;;;8.45;2.75;;;;;;;;;;4998493;28;20046;-56
2023/03/13 04:48:53;;;;;;;5.80;2.45;;;;;;;;;;5006870;28;20117;-57
2023/03/13 04:51:18;;;;;;;6.95;3.15;;;;;;;;;;5007237;28;20030;-56
2023/03/13 04:53:43;;;;;;;7.40;2.85;;;;;;;;;;5007309;28;20117;-56
2023/03/13 04:56:21;;;;;;;5.47;2.85;;;;;;;;;;5018837;28;20038;-56
2023/03/13 04:58:46;;;;;;;9.23;2.45;;;;;;;;;;4995266;28;20021;-55
2023/03/13 05:01:11;;;;;;;5.05;2.30;;;;;;;;;;5007907;28;20026;-56
2023/03/13 05:03:36;;;;;;;5.82;2.30;;;;;;;;;;5005157;28;20060;-56
2023/03/13 05:06:02;;;;;;;5.97;2.75;;;;;;;;;;5006945;28;20460;-56
2023/03/13 05:08:27;;;;;;;6.22;2.72;;;;;;;;;;5007612;28;20029;-57
2023/03/13 05:10:52;;;;;;;10.80;2.72;;;;;;;;;;5005737;28;20068;-56
2023/03/13 05:13:18;;;;;;;4.15;2.40;;;;;;;;;;5008124;28;20080;-56
2023/03/13 05:15:43;;;;;;;6.25;2.42;;;;;;;;;;5001691;28;20037;-57
2023/03/13 05:18:08;;;;;;;8.77;2.70;;;;;;;;;;5000961;28;20049;-56
2023/03/13 05:20:34;;;;;;;6.15;2.35;;;;;;;;;;5004060;28;20030;-56
2023/03/13 05:22:59;;;;;;;6.03;2.50;;;;;;;;;;5007576;28;20022;-57
2023/03/13 05:25:24;;;;;;;7.50;2.40;;;;;;;;;;5003704;28;20068;-56
2023/03/13 05:27:49;;;;;;;4.43;2.60;;;;;;;;;;5006185;28;20100;-56
2023/03/13 05:30:15;;;;;;;6.75;2.40;;;;;;;;;;5013415;28;20041;-57
2023/03/13 05:32:40;;;;;;;5.57;2.50;;;;;;;;;;5004824;28;20033;-56
2023/03/13 05:35:06;;;;;;;6.45;2.60;;;;;;;;;;4999345;28;20040;-56
2023/03/13 05:37:31;;;;;;;7.57;2.60;;;;;;;;;;5007698;28;20101;-56
2023/03/13 05:39:56;;;;;;;4.15;2.17;;;;;;;;;;5007494;28;20049;-57
2023/03/13 05:42:22;;;;;;;7.53;2.33;;;;;;;;;;4998650;28;20034;-57
2023/03/13 05:44:47;;;;;;;4.25;2.00;;;;;;;;;;5015718;28;20112;-57
2023/03/13 05:47:12;;;;;;;8.20;2.78;;;;;;;;;;5007198;28;20025;-56
2023/03/13 05:49:37;;;;;;;10.40;2.58;;;;;;;;;;5007048;28;20102;-56
2023/03/13 05:52:03;;;;;;;10.70;3.13;;;;;;;;;;5007410;28;20053;-56
2023/03/13 05:54:28;;;;;;;6.22;2.35;;;;;;;;;;5003937;28;20022;-56
2023/03/13 05:56:54;;;;;;;6.68;3.17;;;;;;;;;;5000456;28;20065;-56
2023/03/13 05:59:19;;;;;;;7.65;2.67;;;;;;;;;;4995735;28;20060;-56
2023/03/13 06:01:44;;;;;;;8.55;2.75;;;;;;;;;;5014032;28;20527;-56
2023/03/13 06:04:10;;;;;;;10.77;2.70;;;;;;;;;;5005425;28;20541;-57
2023/03/13 06:06:35;;;;;;;8.05;2.25;;;;;;;;;;5006303;28;20061;-56
2023/03/13 06:09:00;;;;;;;4.38;2.40;;;;;;;;;;5005856;28;20037;-56
2023/03/13 06:11:25;;;;;;;10.60;2.20;;;;;;;;;;5003818;28;20116;-56
2023/03/13 06:13:52;;;;;;;4.78;2.58;;;;;;;;;;5006629;28;20160;-57
2023/03/13 06:16:17;;;;;;;9.77;2.72;;;;;;;;;;4997753;28;20069;-56
2023/03/13 06:18:42;;;;;;;3.50;1.95;;;;;;;;;;4994788;28;20058;-56
2023/03/13 06:21:08;;;;;;;10.75;2.25;;;;;;;;;;4993453;28;20045;-57
2023/03/13 06:23:34;;;;;;;6.55;2.17;;;;;;;;;;5001103;28;20525;-56
2023/03/13 06:25:59;;;;;;;5.93;2.63;;;;;;;;;;5006320;28;20034;-56
2023/03/13 06:28:24;;;;;;;5.40;1.83;;;;;;;;;;5000611;28;20025;-56
2023/03/13 06:30:50;;;;;;;5.20;2.45;;;;;;;;;;4996446;28;20091;-56
2023/03/13 06:33:15;;;;;;;6.93;2.33;;;;;;;;;;5005953;28;20423;-57
2023/03/13 06:35:42;;;;;;;8.63;2.45;;;;;;;;;;5005834;28;20073;-57
2023/03/13 06:38:08;;;;;;;7.65;2.20;;;;;;;;;;5006536;28;20034;-57
2023/03/13 06:40:33;;;;;;;7.20;2.17;;;;;;;;;;5006536;28;20029;-57
2023/03/13 06:42:59;;;;;;;7.97;2.22;;;;;;;;;;5003571;28;20048;-56
2023/03/13 06:45:24;;;;;;;9.38;2.97;;;;;;;;;;5004770;28;20125;-56
2023/03/13 06:47:51;;;;;;;4.72;1.98;;;;;;;;;;5003939;28;20120;-56
2023/03/13 06:50:16;;;;;;;5.35;2.05;;;;;;;;;;5003390;28;20045;-56
2023/03/13 06:52:42;;;;;;;7.25;2.30;;;;;;;;;;5006589;28;20034;-57
2023/03/13 06:55:08;;;;;;;5.05;2.22;;;;;;;;;;5001221;28;20184;-56
2023/03/13 06:57:33;;;;;;;6.55;2.47;;;;;;;;;;5005867;28;20057;-56
2023/03/13 06:59:58;;;;;;;8.02;2.60;;;;;;;;;;4996655;28;20034;-56
2023/03/13 07:02:24;;;;;;;6.57;2.28;;;;;;;;;;5005786;28;20642;-57
2023/03/13 07:04:49;;;;;;;10.00;3.58;;;;;;;;;;5005546;28;20050;-57
2023/03/13 07:07:14;;;;;;;12.23;2.58;;;;;;;;;;5004100;28;20026;-56
2023/03/13 07:09:40;;;;;;;8.70;2.30;;;;;;;;;;5005458;28;20618;-56
2023/03/13 07:12:05;;;;;;;7.82;2.65;;;;;;;;;;4995553;28;20553;-57
2023/03/13 07:14:31;;;;;;;5.03;2.10;;;;;;;;;;4996613;28;20658;-56
2023/03/13 07:16:58;;;;;;;8.27;3.38;;;;;;;;;;5002134;28;20049;-57
2023/03/13 07:19:25;;;;;;;5.93;2.85;;;;;;;;;;5002219;28;20650;-56
2023/03/13 07:21:51;;;;;;;6.22;2.45;;;;;;;;;;5006102;28;20567;-56
2023/03/13 07:24:17;;;;;;;6.18;2.30;;;;;;;;;;5007354;28;20030;-57
2023/03/13 07:26:42;;;;;;;8.07;2.90;;;;;;;;;;5001456;28;20043;-57
2023/03/13 07:29:08;;;;;;;7.10;2.60;;;;;;;;;;5006922;28;20165;-57
2023/03/13 07:31:34;;;;;;;6.78;2.75;;;;;;;;;;5009104;28;20396;-56
2023/03/13 07:33:59;;;;;;;6.93;2.42;;;;;;;;;;5009617;28;20014;-57
2023/03/13 07:36:24;;;;;;;11.80;2.90;;;;;;;;;;5009152;28;20070;-56
2023/03/13 07:38:51;;;;;;;7.85;2.70;;;;;;;;;;5009407;28;20048;-57
2023/03/13 07:41:17;;;;;;;7.65;2.88;;;;;;;;;;5008556;28;20527;-56
2023/03/13 07:43:43;;;;;;;5.18;2.47;;;;;;;;;;5008929;28;20648;-56
2023/03/13 07:46:11;;;;;;;5.30;2.70;;;;;;;;;;5009456;28;20022;-55
2023/03/13 07:48:39;;;;;;;5.22;2.58;;;;;;;;;;5006792;28;20076;-56
2023/03/13 07:51:07;;;;;;;11.68;3.33;;;;;;;;;;5007533;28;20030;-56
2023/03/13 07:53:32;;;;;;;9.30;2.83;;;;;;;;;;5009122;28;20057;-56
2023/03/13 07:56:00;;;;;;;7.60;3.60;;;;;;;;;;5008231;28;20030;-56
2023/03/13 07:58:29;;;;;;;5.97;2.88;;;;;;;;;;5008956;28;20056;-57
2023/03/13 08:00:54;;;;;;;4.75;2.58;;;;;;;;;;5004697;28;20108;-57
2023/03/13 08:03:20;;;;;;;9.93;3.58;;;;;;;;;;5007763;28;20536;-56
2023/03/13 08:05:46;;;;;;;8.57;2.90;;;;;;;;;;5000087;28;20089;-56
2023/03/13 08:08:11;;;;;;;7.22;2.90;;;;;;;;;;5006499;28;20029;-56
2023/03/13 08:10:36;;;;;;;7.22;2.30;;;;;;;;;;5007510;28;20026;-56
2023/03/13 08:13:02;;;;;;;9.52;3.40;;;;;;;;;;4998964;28;20797;-56
2023/03/13 08:15:27;;;;;;;5.03;3.05;;;;;;;;;;4999584;28;20038;-54
2023/03/13 08:17:54;;;;;;;6.20;2.80;;;;;;;;;;5003077;28;20136;-56
2023/03/13 08:20:19;;;;;;;13.38;3.03;;;;;;;;;;4999271;28;20108;-57
2023/03/13 08:22:45;;;;;;;7.85;2.60;;;;;;;;;;5006464;28;20069;-55
2023/03/13 08:25:13;;;;;;;6.72;3.05;;;;;;;;;;5008265;28;20669;-56
2023/03/13 08:27:39;;;;;;;5.03;2.28;;;;;;;;;;5008839;28;20010;-56
2023/03/13 08:30:05;;;;;;;5.05;2.47;;;;;;;;;;5006129;28;20425;-57
2023/03/13 08:32:34;;;;;;;6.53;2.50;;;;;;;;;;5006797;28;20099;-56
2023/03/13 08:34:59;;;;;;;6.00;2.10;;;;;;;;;;5007894;28;20066;-56
2023/03/13 08:37:25;;;;;;;4.75;2.17;;;;;;;;;;5007873;28;20097;-55
2023/03/13 08:39:50;;;;;;;5.43;2.50;;;;;;;;;;5006450;28;20053;-56
2023/03/13 08:42:15;;;;;;;6.20;2.88;;;;;;;;;;5007817;28;20030;-56
2023/03/13 08:44:41;;;;;;;5.93;2.33;;;;;;;;;;5006750;28;20045;-56
2023/03/13 08:47:06;;;;;;;4.70;2.53;;;;;;;;;;5007859;28;20034;-56
2023/03/13 08:49:32;;;;;;;6.63;2.80;;;;;;;;;;5006546;28;20029;-56
2023/03/13 08:51:57;;;;;;;7.55;2.30;;;;;;;;;;5004518;28;20022;-56
2023/03/13 08:54:23;;;;;;;6.80;2.58;;;;;;;;;;5004133;28;20069;-56
2023/03/13 08:56:48;;;;;;;7.10;2.60;;;;;;;;;;5004005;28;20042;-55
2023/03/13 08:59:17;;;;;;;6.50;2.35;;;;;;;;;;4994948;28;20076;-56
2023/03/13 09:01:42;;;;;;;4.15;2.10;;;;;;;;;;4987510;28;20050;-56
2023/03/13 09:04:07;;;;;;;5.65;2.05;;;;;;;;;;4996880;28;20039;-56
2023/03/13 09:06:36;;;;;;;4.70;2.53;;;;;;;;;;4997480;28;20519;-54
2023/03/13 09:09:04;;;;;;;3.95;2.20;;;;;;;;;;4996053;28;20049;-56
2023/03/13 09:11:30;;;;;;;5.72;2.22;;;;;;;;;;4993330;28;20120;-56
2023/03/13 09:13:58;;;;;;;5.05;1.98;;;;;;;;;;4999421;28;20042;-56
2023/03/13 09:16:25;;;;;;;5.10;2.30;;;;;;;;;;5000400;28;20022;-56
2023/03/13 09:18:51;;;;;;;4.15;2.45;;;;;;;;;;5001576;28;20046;-56
2023/03/13 09:21:22;;;;;;;13.10;2.40;;;;;;;;;;4993873;28;20559;-54
2023/03/13 09:23:48;;;;;;;5.22;2.45;;;;;;;;;;5000093;28;20049;-56
2023/03/13 09:26:14;;;;;;;7.05;2.63;;;;;;;;;;4986471;28;20571;-55
2023/03/13 09:28:43;;;;;;;3.63;2.20;;;;;;;;;;5000112;28;20054;-56
2023/03/13 09:31:14;;;;;;;4.80;2.20;;;;;;;;;;4999778;28;20033;-55
2023/03/13 09:33:41;;;;;;;3.00;2.00;;;;;;;;;;5007034;28;20041;-56
2023/03/13 09:36:07;;;;;;;5.38;2.08;;;;;;;;;;5000234;28;20124;-55
2023/03/13 09:38:32;;;;;;;2.95;2.00;;;;;;;;;;4999867;28;20038;-56
2023/03/13 09:41:24;;;;;;;5.85;2.45;;;;;;;;;;4994200;28;20033;-56
2023/03/13 09:44:11;;;;;;;3.45;1.92;;;;;;;;;;4999343;28;20037;-55
2023/03/13 09:46:49;;;;;;;5.72;2.28;;;;;;;;;;4995665;28;20045;-56
2023/03/13 09:49:33;;;;;;;4.45;2.20;;;;;;;;;;5001156;28;20083;-55
2023/03/13 09:52:29;;;;;;;8.13;2.17;;;;;;;;;;4999053;28;20112;-56
2023/03/13 09:55:00;;;;;;;4.25;2.25;;;;;;;;;;5001028;28;20542;-55
2023/03/13 09:57:42;;;;;;;5.93;2.15;;;;;;;;;;4998054;28;20040;-56
2023/03/13 10:00:13;;;;;;;5.57;2.28;;;;;;;;;;4996154;28;20042;-56
2023/03/13 10:02:44;;;;;;;3.80;1.63;;;;;;;;;;4995548;28;20079;-56
2023/03/13 10:05:45;;;;;;;2.50;1.80;;;;;;;;;;4998046;28;20070;-56
2023/03/13 10:08:26;;;;;;;3.85;2.05;;;;;;;;;;4996439;28;20130;-57
2023/03/13 10:11:03;;;;;;;2.63;1.80;;;;;;;;;;5004875;28;20038;-56
2023/03/13 10:13:53;;;;;;;4.05;2.10;;;;;;;;;;4993095;28;20022;-56
2023/03/13 10:16:40;;;;;;;3.05;2.30;;;;;;;;;;5001897;28;20781;-56
2023/03/13 10:19:16;;;;;;;3.65;2.13;;;;;;;;;;4995404;28;20039;-56
2023/03/13 10:21:44;;;;;;;4.32;2.00;;;;;;;;;;4996891;28;20048;-56
2023/03/13 10:24:27;;;;;;;4.38;1.95;;;;;;;;;;5001776;28;20440;-56
2023/03/13 10:26:55;;;;;;;2.50;1.70;;;;;;;;;;5002937;28;20743;-56
2023/03/13 10:29:23;;;;;;;3.60;2.08;;;;;;;;;;5003418;28;20073;-55
2023/03/13 10:31:59;;;;;;;6.60;1.83;;;;;;;;;;5003615;28;20038;-56
2023/03/13 10:34:26;;;;;;;3.95;1.98;;;;;;;;;;5004161;28;20510;-56
2023/03/13 10:37:00;;;;;;;1.75;1.25;;;;;;;;;;5004279;28;20084;-54
2023/03/13 10:39:29;;;;;;;3.67;1.60;;;;;;;;;;5001485;28;20088;-56
2023/03/13 10:42:23;;;;;;;3.53;1.70;;;;;;;;;;5002279;28;20034;-57
2023/03/13 10:44:48;;;;;;;3.97;1.58;;;;;;;;;;5001440;28;20068;-56
2023/03/13 10:47:14;;;;;;;3.22;1.80;;;;;;;;;;5002927;28;20136;-56
2023/03/13 10:49:54;;;;;;;3.53;1.73;;;;;;;;;;4998319;28;20052;-56
2023/03/13 10:52:28;;;;;;;2.83;1.83;;;;;;;;;;5005973;28;20392;-56
2023/03/13 10:55:00;;;;;;;3.20;1.83;;;;;;;;;;5005145;28;20115;-54
2023/03/13 10:57:36;;;;;;;3.30;1.08;;;;;;;;;;5008452;28;20048;-56
2023/03/13 11:00:26;;;;;;;3.67;1.55;;;;;;;;;;5009846;28;20038;-56
2023/03/13 11:02:53;;;;;;;2.22;1.30;;;;;;;;;;5004340;28;20042;-56
2023/03/13 11:05:24;;;;;;;1.88;1.40;;;;;;;;;;4996590;28;20222;-56
2023/03/13 11:07:51;;;;;;;6.85;1.70;;;;;;;;;;5006825;28;20053;-54
2023/03/13 11:10:24;;;;;;;2.60;1.55;;;;;;;;;;5007382;28;20030;-55
2023/03/13 11:12:54;;;;;;;3.93;1.33;;;;;;;;;;4996593;28;20543;-56
2023/03/13 11:15:22;;;;;;;2.88;1.33;;;;;;;;;;5005397;28;20026;-56
2023/03/13 11:17:58;;;;;;;3.30;1.27;;;;;;;;;;5001874;28;20061;-56
2023/03/13 11:20:31;;;;;;;3.78;1.40;;;;;;;;;;4996168;28;20088;-56
2023/03/13 11:23:22;;;;;;;2.33;1.40;;;;;;;;;;4999149;28;20046;-55
2023/03/13 11:26:07;;;;;;;2.33;1.48;;;;;;;;;;4997761;28;20520;-56
2023/03/13 11:28:54;;;;;;;4.50;1.50;;;;;;;;;;5000373;28;20129;-56
2023/03/13 11:31:34;;;;;;;1.58;1.25;;;;;;;;;;4997106;28;20463;-56
2023/03/13 11:34:25;;;;;;;2.42;1.40;;;;;;;;;;5002634;28;20080;-57
2023/03/13 11:37:03;;;;;;;3.80;1.33;;;;;;;;;;4997585;28;20050;-56
2023/03/13 11:40:08;;;;;;;2.67;1.42;;;;;;;;;;5000228;28;20062;-56
2023/03/13 11:42:58;;;;;;;2.60;2.00;;;;;;;;;;4992785;28;20515;-57
2023/03/13 11:45:26;;;;;;;4.00;1.25;;;;;;;;;;4997008;28;20054;-55
2023/03/13 11:48:16;;;;;;;4.30;1.27;;;;;;;;;;5003593;28;20129;-55
2023/03/13 11:50:52;;;;;;;3.80;1.65;;;;;;;;;;5000007;28;20128;-56
2023/03/13 11:53:34;;;;;;;2.65;1.40;;;;;;;;;;4994837;28;20084;-56
2023/03/13 11:56:14;;;;;;;2.60;1.70;;;;;;;;;;5003394;28;20053;-56
2023/03/13 11:58:48;;;;;;;3.85;1.38;;;;;;;;;;4998734;28;20063;-56
2023/03/13 12:01:16;;;;;;;1.63;1.27;;;;;;;;;;4997791;28;20042;-56
2023/03/13 12:03:50;;;;;;;1.70;1.17;;;;;;;;;;5003389;28;20033;-55
2023/03/13 12:06:42;;;;;;;2.40;1.25;;;;;;;;;;5000229;28;20096;-56
2023/03/13 12:09:15;;;;;;;2.33;1.23;;;;;;;;;;5001352;28;20042;-56
2023/03/13 12:12:03;;;;;;;3.85;1.20;;;;;;;;;;5002309;28;20042;-56
2023/03/13 12:14:43;;;;;;;2.00;1.25;;;;;;;;;;4999551;28;20104;-56
2023/03/13 12:17:14;;;;;;;1.95;1.10;;;;;;;;;;4994857;28;20061;-56
2023/03/13 12:20:18;;;;;;;1.05;0.95;;;;;;;;;;5001414;28;20037;-56
2023/03/13 12:22:47;;;;;;;;;;;;;;;;;;4996786;28;20915;-56
2023/03/13 12:25:29;;;;;;;1.92;1.10;;;;;;;;;;4998269;28;19913;-56
2023/03/13 12:28:03;;;;;;;3.03;1.10;;;;;;;;;;5008525;28;20076;-56
2023/03/13 12:30:51;;;;;;;2.88;1.05;;;;;;;;;;5003989;28;20026;-56
2023/03/13 12:33:29;;;;;;;1.40;1.05;;;;;;;;;;5004515;28;20041;-55
2023/03/13 12:36:07;;;;;;;4.75;1.80;;;;;;;;;;5006176;28;20045;-55
2023/03/13 12:38:39;;;;;;;3.70;1.40;;;;;;;;;;5007549;28;20037;-56
2023/03/13 12:41:23;;;;;;;2.42;1.20;;;;;;;;;;5004817;28;20428;-54
2023/03/13 12:43:51;;;;;;;3.97;1.27;;;;;;;;;;4998257;28;20428;-56
2023/03/13 12:46:28;;;;;;;2.92;1.30;;;;;;;;;;5000825;28;20029;-56
2023/03/13 12:49:17;;;;;;;3.97;1.08;;;;;;;;;;5006029;28;20033;-55
2023/03/13 12:51:48;;;;;;;2.15;1.10;;;;;;;;;;5006884;28;20041;-54
2023/03/13 12:54:58;;;;;;;3.95;1.20;;;;;;;;;;5006352;28;20044;-56
2023/03/13 12:57:39;;;;;;;2.15;1.23;;;;;;;;;;4995755;28;20225;-55
2023/03/13 13:00:15;;;;;;;2.70;1.20;;;;;;;;;;5007101;28;20033;-56
2023/03/13 13:02:41;;;;;;;2.20;1.20;;;;;;;;;;5000920;28;20524;-56
2023/03/13 13:05:18;;;;;;;2.95;1.08;;;;;;;;;;4993100;28;20416;-56
2023/03/13 13:07:52;;;;;;;3.53;1.30;;;;;;;;;;5003417;28;20034;-54
2023/03/13 13:10:24;;;;;;;3.55;1.00;;;;;;;;;;5001062;28;20057;-56
2023/03/13 13:13:13;;;;;;;3.90;1.02;;;;;;;;;;4997885;28;20026;-56
2023/03/13 13:15:47;;;;;;;2.80;1.10;;;;;;;;;;5000899;28;20538;-55
2023/03/13 13:18:30;;;;;;;4.35;1.73;;;;;;;;;;5006168;28;20054;-56
2023/03/13 13:21:01;;;;;;;3.35;1.00;;;;;;;;;;5002907;28;20546;-56
2023/03/13 13:23:38;;;;;;;4.82;1.00;;;;;;;;;;5005043;28;20467;-56
2023/03/13 13:26:36;;;;;;;3.35;0.95;;;;;;;;;;5001358;28;20124;-53
2023/03/13 13:29:10;;;;;;;2.72;1.20;;;;;;;;;;4995517;28;20570;-57
2023/03/13 13:31:44;;;;;;;3.65;1.15;;;;;;;;;;5004256;28;20467;-57
2023/03/13 13:34:31;;;;;;;4.82;1.20;;;;;;;;;;5003845;28;20030;-56
2023/03/13 13:37:00;;;;;;;2.90;1.10;;;;;;;;;;5006783;28;20029;-57
2023/03/13 13:39:46;;;;;;;5.63;2.13;;;;;;;;;;4996973;28;20031;-57
2023/03/13 13:42:30;;;;;;;4.25;1.23;;;;;;;;;;4995727;28;20041;-57
2023/03/13 13:45:16;;;;;;;3.78;1.17;;;;;;;;;;5006308;28;20050;-57
2023/03/13 13:47:44;;;;;;;2.50;1.10;;;;;;;;;;5004294;28;20052;-57
2023/03/13 13:50:26;;;;;;;3.05;1.40;;;;;;;;;;4992796;28;20038;-57
2023/03/13 13:52:52;;;;;;;6.22;1.52;;;;;;;;;;5007074;28;20091;-57
2023/03/13 13:55:31;;;;;;;6.63;1.40;;;;;;;;;;5006234;28;20614;-57
2023/03/13 13:58:05;;;;;;;4.18;1.40;;;;;;;;;;5007192;28;20473;-57
2023/03/13 14:00:39;;;;;;;;;;;;;;;;;;5007383;28;20137;-59
2023/03/13 14:03:16;;;;;;;10.98;1.42;;;;;;;;;;5005288;28;19924;-57
2023/03/13 14:05:42;;;;;;;4.03;1.40;;;;;;;;;;5005448;28;20999;-57
2023/03/13 14:08:30;;;;;;;5.00;1.77;;;;;;;;;;5006681;28;20038;-57
2023/03/13 14:11:09;;;;;;;3.17;1.10;;;;;;;;;;5006445;28;20045;-57
2023/03/13 14:13:35;;;;;;;8.25;1.50;;;;;;;;;;4997720;28;20041;-57
2023/03/13 14:16:20;;;;;;;4.68;1.25;;;;;;;;;;5005852;28;20032;-57
2023/03/13 14:18:47;;;;;;;2.92;1.13;;;;;;;;;;4997818;28;20054;-57
2023/03/13 14:21:13;;;;;;;3.13;1.40;;;;;;;;;;5005135;28;20040;-57
2023/03/13 14:23:45;;;;;;;3.25;1.45;;;;;;;;;;5006578;28;20033;-57
2023/03/13 14:26:25;;;;;;;4.88;1.48;;;;;;;;;;4996148;28;20115;-57
2023/03/13 14:28:58;;;;;;;5.38;1.42;;;;;;;;;;4996229;28;20567;-57
2023/03/13 14:31:37;;;;;;;5.53;1.50;;;;;;;;;;5004282;28;20049;-57
2023/03/13 14:34:11;;;;;;;6.40;1.33;;;;;;;;;;5004937;28;20448;-57
2023/03/13 14:36:54;;;;;;;3.72;1.50;;;;;;;;;;5004090;28;20042;-57
2023/03/13 14:39:41;;;;;;;2.70;1.30;;;;;;;;;;5004841;28;20569;-57
2023/03/13 14:42:10;;;;;;;4.80;1.73;;;;;;;;;;5004714;28;20034;-57
2023/03/13 14:44:37;;;;;;;3.08;1.20;;;;;;;;;;5001895;28;20042;-57
2023/03/13 14:47:30;;;;;;;3.88;1.20;;;;;;;;;;5004131;28;20030;-57
2023/03/13 14:49:58;;;;;;;5.07;1.50;;;;;;;;;;4997151;28;20150;-57
2023/03/13 14:52:25;;;;;;;4.15;1.25;;;;;;;;;;5000178;28;20037;-57
2023/03/13 14:55:03;;;;;;;2.92;1.40;;;;;;;;;;4991254;28;20508;-57
2023/03/13 14:57:30;;;;;;;3.03;1.15;;;;;;;;;;5004066;28;20042;-57
2023/03/13 15:00:21;;;;;;;5.45;1.60;;;;;;;;;;5000504;28;20042;-57
2023/03/13 15:02:46;;;;;;;4.65;1.38;;;;;;;;;;5004120;28;20424;-57